createdAt,value
2022-10-25T00:00:24.702Z,29.08
2022-10-25T00:02:52.706Z,28.77
2022-10-25T00:05:22.006Z,29.50
2022-10-25T00:07:49.935Z,27.42
2022-10-25T00:10:20.071Z,25.50
2022-10-25T00:15:18.475Z,26.35
2022-10-25T00:17:46.706Z,23.63
2022-10-25T00:20:15.031Z,23.73
2022-10-25T00:22:44.687Z,23.60
2022-10-25T00:25:14.614Z,27.48
2022-10-25T00:27:42.488Z,22.92
2022-10-25T00:30:11.807Z,25.02
2022-10-25T00:32:39.739Z,25.40
2022-10-25T00:35:08.251Z,25.58
2022-10-25T00:37:37.373Z,23.70
2022-10-25T00:40:08.125Z,20.90
2022-10-25T00:42:36.125Z,24.30
2022-10-25T00:45:13.628Z,27.25
2022-10-25T00:47:52.111Z,27.40
2022-10-25T00:50:45.462Z,27.92
2022-10-25T00:53:16.227Z,33.42
2022-10-25T00:55:51.135Z,28.73
2022-10-25T00:58:22.660Z,26.83
2022-10-25T01:00:50.789Z,30.17
2022-10-25T01:03:21.855Z,26.80
2022-10-25T01:05:50.768Z,25.73
2022-10-25T01:08:20.169Z,26.63
2022-10-25T01:10:50.755Z,23.90
2022-10-25T01:13:18.993Z,22.88
2022-10-25T01:15:57.375Z,26.48
2022-10-25T01:18:33.302Z,26.40
2022-10-25T01:21:40.318Z,22.00
2022-10-25T01:24:44.427Z,26.52
2022-10-25T01:27:30.291Z,21.65
2022-10-25T01:30:08.168Z,22.40
2022-10-25T01:33:03.347Z,23.58
2022-10-25T01:35:33.689Z,22.60
2022-10-25T01:38:18.581Z,24.77
2022-10-25T01:40:53.408Z,28.85
2022-10-25T01:43:30.269Z,28.88
2022-10-25T01:46:07.688Z,31.30
2022-10-25T01:48:42.351Z,24.13
2022-10-25T01:51:12.952Z,30.85
2022-10-25T01:53:48.606Z,30.00
2022-10-25T01:56:24.310Z,29.42
2022-10-25T01:59:18.768Z,28.42
2022-10-25T02:02:00.919Z,28.65
2022-10-25T02:04:40.642Z,28.70
2022-10-25T02:07:12.175Z,29.25
2022-10-25T02:09:49.852Z,26.40
2022-10-25T02:12:25.725Z,26.73
2022-10-25T02:15:02.068Z,29.73
2022-10-25T02:17:30.047Z,27.33
2022-10-25T02:20:02.345Z,30.52
2022-10-25T02:25:01.089Z,30.77
2022-10-25T02:27:31.178Z,27.52
2022-10-25T02:30:00.499Z,29.88
2022-10-25T02:32:28.471Z,34.80
2022-10-25T02:34:56.581Z,29.50
2022-10-25T02:37:25.867Z,35.42
2022-10-25T02:39:53.787Z,32.15
2022-10-25T02:42:21.715Z,34.10
2022-10-25T02:44:49.627Z,33.17
2022-10-25T02:47:17.606Z,33.97
2022-10-25T02:49:45.478Z,31.13
2022-10-25T02:52:13.405Z,31.95
2022-10-25T02:54:42.675Z,31.77
2022-10-25T02:57:10.763Z,32.17
2022-10-25T02:59:38.660Z,36.28
2022-10-25T03:02:06.555Z,30.70
2022-10-25T03:04:34.513Z,36.28
2022-10-25T03:07:02.459Z,36.20
2022-10-25T03:09:30.454Z,29.90
2022-10-25T03:11:59.683Z,28.70
2022-10-25T03:14:27.563Z,29.23
2022-10-25T03:16:55.524Z,27.75
2022-10-25T03:19:23.434Z,30.27
2022-10-25T03:21:51.342Z,26.38
2022-10-25T03:24:19.265Z,32.08
2022-10-25T03:26:47.166Z,27.23
2022-10-25T03:29:16.438Z,30.58
2022-10-25T03:31:44.332Z,34.97
2022-10-25T03:34:12.213Z,24.80
2022-10-25T03:36:40.145Z,30.55
2022-10-25T03:39:08.040Z,28.67
2022-10-25T03:41:35.963Z,31.52
2022-10-25T03:44:03.882Z,29.67
2022-10-25T03:46:33.146Z,28.95
2022-10-25T03:49:01.017Z,33.30
2022-10-25T03:51:28.900Z,35.88
2022-10-25T03:53:56.809Z,31.02
2022-10-25T03:56:24.737Z,29.55
2022-10-25T03:58:53.259Z,28.25
2022-10-25T04:01:21.253Z,26.55
2022-10-25T04:03:50.611Z,26.65
2022-10-25T04:06:18.565Z,25.10
2022-10-25T04:08:46.517Z,31.73
2022-10-25T04:11:14.427Z,29.83
2022-10-25T04:13:42.372Z,28.67
2022-10-25T04:16:10.952Z,26.48
2022-10-25T04:18:38.836Z,25.95
2022-10-25T04:21:08.150Z,29.83
2022-10-25T04:23:36.059Z,22.75
2022-10-25T04:26:04.019Z,27.08
2022-10-25T04:28:31.954Z,32.20
2022-10-25T04:30:59.854Z,24.33
2022-10-25T04:33:27.762Z,25.98
2022-10-25T04:35:56.840Z,24.02
2022-10-25T04:38:26.760Z,22.77
2022-10-25T04:40:56.120Z,22.65
2022-10-25T04:43:24.782Z,23.90
2022-10-25T04:45:53.220Z,24.83
2022-10-25T04:48:22.166Z,24.02
2022-10-25T04:50:50.070Z,21.73
2022-10-25T04:53:20.375Z,32.50
2022-10-25T04:55:58.454Z,31.30
2022-10-25T04:58:30.363Z,27.85
2022-10-25T05:01:02.284Z,22.13
2022-10-25T05:03:30.806Z,27.92
2022-10-25T05:06:07.439Z,29.17
2022-10-25T05:08:35.765Z,26.85
2022-10-25T05:11:05.224Z,26.60
2022-10-25T05:13:34.129Z,24.35
2022-10-25T05:16:02.010Z,22.50
2022-10-25T05:18:30.966Z,20.23
2022-10-25T05:21:00.225Z,25.45
2022-10-25T05:23:29.005Z,25.25
2022-10-25T05:26:06.051Z,24.30
2022-10-25T05:28:35.021Z,21.98
2022-10-25T05:31:05.116Z,20.92
2022-10-25T05:33:33.482Z,22.63
2022-10-25T05:36:01.839Z,22.33
2022-10-25T05:38:32.953Z,19.63
2022-10-25T05:41:05.297Z,20.42
2022-10-25T05:43:33.322Z,21.20
2022-10-25T05:46:07.052Z,19.63
2022-10-25T05:48:36.158Z,20.58
2022-10-25T05:51:32.519Z,20.75
2022-10-25T05:54:04.100Z,21.05
2022-10-25T05:56:34.227Z,21.17
2022-10-25T05:59:07.558Z,19.95
2022-10-25T06:01:36.872Z,20.02
2022-10-25T06:04:05.001Z,21.48
2022-10-25T06:06:33.106Z,21.83
2022-10-25T06:09:02.346Z,24.10
2022-10-25T06:11:31.114Z,21.70
2022-10-25T06:14:00.418Z,20.98
2022-10-25T06:16:28.364Z,25.90
2022-10-25T06:18:56.433Z,24.02
2022-10-25T06:21:26.184Z,24.73
2022-10-25T06:23:54.942Z,25.02
2022-10-25T06:26:25.362Z,25.60
2022-10-25T06:28:54.643Z,25.38
2022-10-25T06:31:24.810Z,24.02
2022-10-25T06:33:52.993Z,22.90
2022-10-25T06:36:23.418Z,23.30
2022-10-25T06:38:51.983Z,24.67
2022-10-25T06:41:21.832Z,23.40
2022-10-25T06:43:50.242Z,26.52
2022-10-25T06:46:23.734Z,28.52
2022-10-25T06:48:53.043Z,23.95
2022-10-25T06:51:21.561Z,23.13
2022-10-25T06:53:54.991Z,22.25
2022-10-25T06:56:23.255Z,29.15
2022-10-25T06:58:51.396Z,22.10
2022-10-25T07:01:21.110Z,22.85
2022-10-25T07:03:53.441Z,21.88
2022-10-25T07:08:55.119Z,24.15
2022-10-25T07:11:23.437Z,24.35
2022-10-25T07:13:51.424Z,24.35
2022-10-25T07:16:22.051Z,24.08
2022-10-25T07:18:51.458Z,24.05
2022-10-25T07:21:21.167Z,22.67
2022-10-25T07:23:50.634Z,21.42
2022-10-25T07:26:21.449Z,24.08
2022-10-25T07:28:51.193Z,20.67
2022-10-25T07:31:20.873Z,20.92
2022-10-25T07:33:49.082Z,21.50
2022-10-25T07:36:18.311Z,23.65
2022-10-25T07:38:46.748Z,19.52
2022-10-25T07:41:14.690Z,20.65
2022-10-25T07:43:42.944Z,18.02
2022-10-25T07:46:11.004Z,21.15
2022-10-25T07:48:38.969Z,17.70
2022-10-25T07:51:09.190Z,17.08
2022-10-25T07:53:38.471Z,17.10
2022-10-25T07:56:06.982Z,20.25
2022-10-25T07:58:35.845Z,16.98
2022-10-25T08:01:05.332Z,21.38
2022-10-25T08:03:33.673Z,21.23
2022-10-25T08:06:02.464Z,17.75
2022-10-25T08:08:30.948Z,20.02
2022-10-25T08:11:03.387Z,18.13
2022-10-25T08:13:31.303Z,19.88
2022-10-25T08:15:59.277Z,16.80
2022-10-25T08:18:28.406Z,18.38
2022-10-25T08:21:03.195Z,15.85
2022-10-25T08:23:32.372Z,17.23
2022-10-25T08:26:02.045Z,18.23
2022-10-25T08:28:31.421Z,15.75
2022-10-25T08:31:01.251Z,18.20
2022-10-25T08:33:29.730Z,21.08
2022-10-25T08:36:00.132Z,19.90
2022-10-25T08:38:27.995Z,17.98
2022-10-25T08:41:02.018Z,16.40
2022-10-25T08:43:56.735Z,20.70
2022-10-25T08:46:28.627Z,22.23
2022-10-25T08:49:07.181Z,16.95
2022-10-25T08:51:38.835Z,19.58
2022-10-25T08:54:19.423Z,19.35
2022-10-25T08:57:03.398Z,20.77
2022-10-25T08:59:40.374Z,19.38
2022-10-25T09:02:17.054Z,20.42
2022-10-25T09:04:45.030Z,21.85
2022-10-25T09:07:25.869Z,20.00
2022-10-25T09:10:05.053Z,16.13
2022-10-25T09:12:39.188Z,17.23
2022-10-25T09:15:16.726Z,24.92
2022-10-25T09:17:50.109Z,19.55
2022-10-25T09:20:21.707Z,20.48
2022-10-25T09:22:51.635Z,18.95
2022-10-25T09:25:24.163Z,18.92
2022-10-25T09:28:00.163Z,21.48
2022-10-25T09:30:35.448Z,19.27
2022-10-25T09:33:06.844Z,21.75
2022-10-25T09:35:45.018Z,24.97
2022-10-25T09:38:19.129Z,19.75
2022-10-25T09:40:50.145Z,20.02
2022-10-25T09:43:23.147Z,20.52
2022-10-25T09:45:56.015Z,17.80
2022-10-25T09:48:28.646Z,23.75
2022-10-25T09:51:03.932Z,21.08
2022-10-25T09:53:34.482Z,19.30
2022-10-25T09:56:05.552Z,19.58
2022-10-25T09:58:35.609Z,26.73
2022-10-25T10:01:07.246Z,15.13
2022-10-25T10:03:37.322Z,19.38
2022-10-25T10:06:16.634Z,16.40
2022-10-25T10:08:50.158Z,18.77
2022-10-25T10:11:19.454Z,18.23
2022-10-25T10:13:51.761Z,18.15
2022-10-25T10:18:51.184Z,16.05
2022-10-25T10:21:20.954Z,17.17
2022-10-25T10:23:53.228Z,18.00
2022-10-25T10:29:08.853Z,20.58
2022-10-25T10:31:40.535Z,18.38
2022-10-25T10:34:26.514Z,16.25
2022-10-25T10:37:14.092Z,16.02
2022-10-25T10:39:50.359Z,14.90
2022-10-25T10:42:19.892Z,19.60
2022-10-25T10:45:04.594Z,13.45
2022-10-25T10:47:37.661Z,13.95
2022-10-25T10:50:13.560Z,17.90
2022-10-25T10:52:45.324Z,15.85
2022-10-25T10:55:21.724Z,14.27
2022-10-25T10:57:49.881Z,12.77
2022-10-25T11:00:26.013Z,16.38
2022-10-25T11:05:26.962Z,15.95
2022-10-25T11:07:59.500Z,13.13
2022-10-25T11:10:30.307Z,15.35
2022-10-25T11:13:16.695Z,13.18
2022-10-25T11:16:18.035Z,15.63
2022-10-25T11:19:17.403Z,12.68
2022-10-25T11:22:00.938Z,16.15
2022-10-25T11:24:37.122Z,14.07
2022-10-25T11:27:13.559Z,17.27
2022-10-25T11:29:55.613Z,18.42
2022-10-25T11:32:50.333Z,17.25
2022-10-25T11:35:35.995Z,13.38
2022-10-25T11:38:11.017Z,17.20
2022-10-25T11:40:42.325Z,16.65
2022-10-25T11:43:28.099Z,16.40
2022-10-25T11:46:00.369Z,14.93
2022-10-25T11:51:23.065Z,14.00
2022-10-25T11:54:20.480Z,11.23
2022-10-25T11:56:57.885Z,10.20
2022-10-25T11:59:34.177Z,10.43
2022-10-25T12:02:21.084Z,14.48
2022-10-25T12:05:04.392Z,11.73
2022-10-25T12:07:41.673Z,12.25
2022-10-25T12:10:17.172Z,10.18
2022-10-25T12:12:50.379Z,11.63
2022-10-25T12:15:24.194Z,12.15
2022-10-25T12:17:53.591Z,9.45
2022-10-25T12:20:25.902Z,8.40
2022-10-25T12:22:58.165Z,10.32
2022-10-25T12:28:06.916Z,12.35
2022-10-25T12:30:36.020Z,12.00
2022-10-25T12:33:15.728Z,13.13
2022-10-25T12:35:49.411Z,13.07
2022-10-25T12:38:26.798Z,9.85
2022-10-25T12:41:01.743Z,12.85
2022-10-25T12:43:35.982Z,9.50
2022-10-25T12:46:30.600Z,9.88
2022-10-25T12:49:21.717Z,14.55
2022-10-25T12:52:17.794Z,13.25
2022-10-25T12:55:01.995Z,9.75
2022-10-25T12:57:37.266Z,12.23
2022-10-25T13:00:11.920Z,9.52
2022-10-25T13:03:23.452Z,12.35
2022-10-25T13:06:11.212Z,12.05
2022-10-25T13:08:41.502Z,11.23
2022-10-25T13:11:11.806Z,10.07
2022-10-25T13:13:41.460Z,10.48
2022-10-25T13:16:11.014Z,12.43
2022-10-25T13:18:44.729Z,11.60
2022-10-25T13:21:15.292Z,9.40
2022-10-25T13:24:02.755Z,10.68
2022-10-25T13:27:16.113Z,13.05
2022-10-25T13:30:05.148Z,13.30
2022-10-25T13:32:34.754Z,10.57
2022-10-25T13:35:03.839Z,11.25
2022-10-25T13:37:45.725Z,12.45
2022-10-25T13:40:26.164Z,9.93
2022-10-25T13:43:07.211Z,8.95
2022-10-25T13:45:40.072Z,11.43
2022-10-25T13:48:28.558Z,8.25
2022-10-25T13:50:59.047Z,11.35
2022-10-25T13:53:34.061Z,11.35
2022-10-25T13:56:06.439Z,10.10
2022-10-25T13:58:49.935Z,8.43
2022-10-25T14:01:57.083Z,7.32
2022-10-25T14:04:45.917Z,8.90
2022-10-25T14:07:48.548Z,13.40
2022-10-25T14:10:27.807Z,13.95
2022-10-25T14:13:02.873Z,12.88
2022-10-25T14:15:41.036Z,8.15
2022-10-25T14:18:16.310Z,13.60
2022-10-25T14:20:47.500Z,11.18
2022-10-25T14:23:21.810Z,8.18
2022-10-25T14:25:55.930Z,7.88
2022-10-25T14:28:26.480Z,9.88
2022-10-25T14:30:57.814Z,12.45
2022-10-25T14:33:28.950Z,8.33
2022-10-25T14:36:00.102Z,7.03
2022-10-25T14:38:28.840Z,9.93
2022-10-25T14:40:58.215Z,8.88
2022-10-25T14:43:29.485Z,9.98
2022-10-25T14:46:02.390Z,9.60
2022-10-25T14:48:31.658Z,7.97
2022-10-25T14:51:04.465Z,8.80
2022-10-25T14:53:32.750Z,9.02
2022-10-25T14:56:03.020Z,8.88
2022-10-25T14:58:42.084Z,10.77
2022-10-25T15:01:12.771Z,10.45
2022-10-25T15:03:44.398Z,10.38
2022-10-25T15:06:14.043Z,11.57
2022-10-25T15:08:49.173Z,8.02
2022-10-25T15:11:22.233Z,8.95
2022-10-25T15:13:52.061Z,9.80
2022-10-25T15:16:32.536Z,14.27
2022-10-25T15:19:21.218Z,8.40
2022-10-25T15:21:50.333Z,8.75
2022-10-25T15:24:20.780Z,10.25
2022-10-25T15:26:58.363Z,6.20
2022-10-25T15:29:45.949Z,11.18
2022-10-25T15:32:17.899Z,7.63
2022-10-25T15:34:48.029Z,9.45
2022-10-25T15:37:17.615Z,8.15
2022-10-25T15:39:48.220Z,8.45
2022-10-25T15:42:16.319Z,10.27
2022-10-25T15:44:44.485Z,10.27
2022-10-25T15:47:27.361Z,12.18
2022-10-25T15:49:55.633Z,7.40
2022-10-25T15:52:24.005Z,8.77
2022-10-25T15:54:51.967Z,7.60
2022-10-25T15:57:19.952Z,9.13
2022-10-25T15:59:47.949Z,9.23
2022-10-25T16:02:23.177Z,8.63
2022-10-25T16:04:51.084Z,20.35
2022-10-25T16:07:19.076Z,10.80
2022-10-25T16:09:47.076Z,8.60
2022-10-25T16:12:21.778Z,12.43
2022-10-25T16:14:52.513Z,11.02
2022-10-25T16:17:21.792Z,6.53
2022-10-25T16:19:49.859Z,7.88
2022-10-25T16:22:17.740Z,10.10
2022-10-25T16:24:45.612Z,9.80
2022-10-25T16:27:14.097Z,7.38
2022-10-25T16:29:42.326Z,9.73
2022-10-25T16:32:10.187Z,7.97
2022-10-25T16:34:42.474Z,6.80
2022-10-25T16:39:40.111Z,10.23
2022-10-25T16:42:27.898Z,11.40
2022-10-25T16:44:55.791Z,10.07
2022-10-25T16:47:24.085Z,12.15
2022-10-25T16:49:53.639Z,6.35
2022-10-25T16:52:22.259Z,7.00
2022-10-25T16:54:50.142Z,8.48
2022-10-25T16:57:18.068Z,9.85
2022-10-25T16:59:46.062Z,7.95
2022-10-25T17:02:18.138Z,9.60
2022-10-25T17:04:46.456Z,6.53
2022-10-25T17:07:15.979Z,8.35
2022-10-25T17:09:44.088Z,8.85
2022-10-25T17:12:12.622Z,9.25
2022-10-25T17:14:40.484Z,6.53
2022-10-25T17:17:08.384Z,8.73
2022-10-25T17:19:36.629Z,10.27
2022-10-25T17:22:04.555Z,11.43
2022-10-25T17:24:37.325Z,10.73
2022-10-25T17:29:38.695Z,10.52
2022-10-25T17:32:07.013Z,7.72
2022-10-25T17:34:34.901Z,8.65
2022-10-25T17:37:03.779Z,10.48
2022-10-25T17:39:33.076Z,9.60
2022-10-25T17:42:00.934Z,6.63
2022-10-25T17:44:28.781Z,11.38
2022-10-25T17:46:58.483Z,7.88
2022-10-25T17:49:28.872Z,11.43
2022-10-25T17:51:56.783Z,7.22
2022-10-25T17:54:24.684Z,10.57
2022-10-25T17:56:58.451Z,8.55
2022-10-25T17:59:27.671Z,11.38
2022-10-25T18:01:55.821Z,10.93
2022-10-25T18:04:24.433Z,9.27
2022-10-25T18:06:52.424Z,10.82
2022-10-25T18:09:20.414Z,11.20
2022-10-25T18:11:48.354Z,13.85
2022-10-25T18:14:17.605Z,8.15
2022-10-25T18:16:45.473Z,11.07
2022-10-25T18:19:15.271Z,8.88
2022-10-25T18:21:43.243Z,8.43
2022-10-25T18:24:13.548Z,10.73
2022-10-25T18:26:41.443Z,11.27
2022-10-25T18:29:09.996Z,8.70
2022-10-25T18:31:39.848Z,10.77
2022-10-25T18:34:07.759Z,10.93
2022-10-25T18:36:35.614Z,10.32
2022-10-25T18:39:03.622Z,7.95
2022-10-25T18:41:33.878Z,13.80
2022-10-25T18:44:02.782Z,12.50
2022-10-25T18:46:32.555Z,9.30
2022-10-25T18:49:02.140Z,12.82
2022-10-25T18:51:32.049Z,17.02
2022-10-25T18:54:01.648Z,11.57
2022-10-25T18:56:31.236Z,13.75
2022-10-25T18:58:59.992Z,16.00
2022-10-25T19:01:32.568Z,12.13
2022-10-25T19:04:07.720Z,16.73
2022-10-25T19:06:36.482Z,13.13
2022-10-25T19:09:04.870Z,12.73
2022-10-25T19:11:34.664Z,11.57
2022-10-25T19:14:03.946Z,14.57
2022-10-25T19:16:31.997Z,11.13
2022-10-25T19:19:06.984Z,12.65
2022-10-25T19:21:35.173Z,17.45
2022-10-25T19:24:03.001Z,14.18
2022-10-25T19:26:31.212Z,17.50
2022-10-25T19:29:00.669Z,13.65
2022-10-25T19:31:29.739Z,14.60
2022-10-25T19:34:00.212Z,16.17
2022-10-25T19:36:29.778Z,15.07
2022-10-25T19:38:57.718Z,16.08
2022-10-25T19:41:26.357Z,17.38
2022-10-25T19:43:56.334Z,17.85
2022-10-25T19:46:24.684Z,17.58
2022-10-25T19:48:52.750Z,18.25
2022-10-25T19:51:22.080Z,19.67
2022-10-25T19:53:51.515Z,21.67
2022-10-25T19:56:21.001Z,15.88
2022-10-25T19:58:50.123Z,16.33
2022-10-25T20:01:19.944Z,20.23
2022-10-25T20:03:50.676Z,15.85
2022-10-25T20:06:24.385Z,20.30
2022-10-25T20:08:55.296Z,21.17
2022-10-25T20:11:24.280Z,16.38
2022-10-25T20:13:55.027Z,16.83
2022-10-25T20:16:23.335Z,16.90
2022-10-25T20:18:51.466Z,16.25
2022-10-25T20:21:21.933Z,14.82
2022-10-25T20:23:56.659Z,17.08
2022-10-25T20:26:27.038Z,18.40
2022-10-25T20:28:55.965Z,19.90
2022-10-25T20:31:23.989Z,22.60
2022-10-25T20:33:52.683Z,20.30
2022-10-25T20:36:20.864Z,17.17
2022-10-25T20:38:49.259Z,20.10
2022-10-25T20:41:20.308Z,19.40
2022-10-25T20:43:49.625Z,19.23
2022-10-25T20:46:18.140Z,17.38
2022-10-25T20:48:46.561Z,19.95
2022-10-25T20:51:15.698Z,17.25
2022-10-25T20:53:44.124Z,19.52
2022-10-25T20:56:12.626Z,21.92
2022-10-25T20:58:42.180Z,19.40
2022-10-25T21:01:10.317Z,19.88
2022-10-25T21:03:39.026Z,18.00
2022-10-25T21:06:08.889Z,22.95
2022-10-25T21:08:38.442Z,22.92
2022-10-25T21:11:09.364Z,22.20
2022-10-25T21:13:37.860Z,18.92
2022-10-25T21:16:08.997Z,20.30
2022-10-25T21:18:37.579Z,18.13
2022-10-25T21:21:07.547Z,17.20
2022-10-25T21:23:36.231Z,15.50
2022-10-25T21:26:05.839Z,16.77
2022-10-25T21:28:36.466Z,16.33
2022-10-25T21:31:06.022Z,14.13
2022-10-25T21:33:35.285Z,15.52
2022-10-25T21:36:04.553Z,14.20
2022-10-25T21:38:32.516Z,13.65
2022-10-25T21:41:10.982Z,13.77
2022-10-25T21:43:42.487Z,16.52
2022-10-25T21:46:10.418Z,13.83
2022-10-25T21:48:40.058Z,15.07
2022-10-25T21:51:08.508Z,14.07
2022-10-25T21:53:39.559Z,17.80
2022-10-25T21:56:10.373Z,14.68
2022-10-25T21:58:38.556Z,14.15
2022-10-25T22:01:11.108Z,17.63
2022-10-25T22:03:41.180Z,18.35
2022-10-25T22:06:10.094Z,17.40
2022-10-25T22:08:38.282Z,17.17
2022-10-25T22:11:08.326Z,15.10
2022-10-25T22:13:36.483Z,13.98
2022-10-25T22:16:06.675Z,15.32
2022-10-25T22:18:35.355Z,17.50
2022-10-25T22:21:07.568Z,16.80
2022-10-25T22:23:36.178Z,16.45
2022-10-25T22:26:06.843Z,14.95
2022-10-25T22:28:38.293Z,15.27
2022-10-25T22:31:10.427Z,16.45
2022-10-25T22:33:39.034Z,16.77
2022-10-25T22:36:10.459Z,19.00
2022-10-25T22:38:38.753Z,17.30
2022-10-25T22:41:08.128Z,17.33
2022-10-25T22:43:36.789Z,17.23
2022-10-25T22:46:06.275Z,20.13
2022-10-25T22:48:35.050Z,17.85
2022-10-25T22:51:03.198Z,16.50
2022-10-25T22:53:33.122Z,17.17
2022-10-25T22:56:02.294Z,19.35
2022-10-25T22:58:32.592Z,19.13
2022-10-25T23:03:36.777Z,21.63
2022-10-25T23:06:06.050Z,19.70
2022-10-25T23:08:35.464Z,21.70
2022-10-25T23:11:05.803Z,22.15
2022-10-25T23:13:36.282Z,20.17
2022-10-25T23:16:05.516Z,20.08
2022-10-25T23:18:33.957Z,21.05
2022-10-25T23:21:03.615Z,21.00
2022-10-25T23:23:38.106Z,20.00
2022-10-25T23:28:40.261Z,20.30
2022-10-25T23:31:10.121Z,20.75
2022-10-25T23:33:38.631Z,21.90
2022-10-25T23:36:10.211Z,25.00
2022-10-25T23:38:39.592Z,23.63
2022-10-25T23:41:07.784Z,23.63
2022-10-25T23:43:36.247Z,23.05
2022-10-25T23:46:04.643Z,22.50
2022-10-25T23:48:33.105Z,21.60
2022-10-25T23:51:02.775Z,21.70
2022-10-25T23:53:30.934Z,23.63
2022-10-25T23:56:00.212Z,22.77
2022-10-25T23:58:28.220Z,23.65
